createdAt,value
2023-01-31T00:01:35.439Z,97210.75
2023-01-31T00:04:08.362Z,97194.63
2023-01-31T00:06:43.507Z,97209.09
2023-01-31T00:09:11.886Z,97202.38
2023-01-31T00:11:39.229Z,97207.97
2023-01-31T00:14:07.063Z,97224.19
2023-01-31T00:16:34.197Z,97218.25
2023-01-31T00:19:00.793Z,97214.94
2023-01-31T00:21:29.304Z,97217.47
2023-01-31T00:23:56.796Z,97226.00
2023-01-31T00:26:29.751Z,97241.09
2023-01-31T00:28:58.198Z,97236.19
2023-01-31T00:31:27.606Z,97237.19
2023-01-31T00:33:55.308Z,97228.13
2023-01-31T00:36:27.851Z,97230.38
2023-01-31T00:38:56.579Z,97231.25
2023-01-31T00:41:24.826Z,97237.09
2023-01-31T00:43:51.654Z,97238.91
2023-01-31T00:46:22.353Z,97244.00
2023-01-31T00:48:48.887Z,97243.22
2023-01-31T00:51:15.830Z,97243.03
2023-01-31T00:53:42.270Z,97226.06
2023-01-31T00:56:11.627Z,97236.78
2023-01-31T00:58:39.591Z,97244.41
2023-01-31T01:01:27.180Z,97232.78
2023-01-31T01:03:54.549Z,97232.13
2023-01-31T01:06:21.820Z,97237.03
2023-01-31T01:08:49.061Z,97235.25
2023-01-31T01:11:22.662Z,97241.28
2023-01-31T01:13:49.614Z,97252.44
2023-01-31T01:16:24.113Z,97236.38
2023-01-31T01:18:51.098Z,97248.16
2023-01-31T01:21:26.222Z,97238.38
2023-01-31T01:23:53.230Z,97246.22
2023-01-31T01:26:29.232Z,97237.25
2023-01-31T01:28:57.821Z,97256.75
2023-01-31T01:31:30.377Z,97245.88
2023-01-31T01:34:03.716Z,97237.50
2023-01-31T01:36:34.624Z,97253.91
2023-01-31T01:39:01.520Z,97246.09
2023-01-31T01:41:28.638Z,97247.09
2023-01-31T01:43:57.763Z,97256.88
2023-01-31T01:46:31.830Z,97248.16
2023-01-31T01:49:19.347Z,97246.41
2023-01-31T01:51:49.094Z,97250.06
2023-01-31T01:54:21.379Z,97255.94
2023-01-31T01:56:52.097Z,97246.69
2023-01-31T01:59:22.345Z,97257.03
2023-01-31T02:01:50.536Z,97248.22
2023-01-31T02:04:20.932Z,97248.75
2023-01-31T02:06:47.803Z,97245.59
2023-01-31T02:09:31.821Z,97257.13
2023-01-31T02:11:58.939Z,97246.22
2023-01-31T02:14:27.026Z,97252.16
2023-01-31T02:16:53.456Z,97255.19
2023-01-31T02:19:33.651Z,97268.19
2023-01-31T02:22:17.131Z,97268.09
2023-01-31T02:25:09.277Z,97267.84
2023-01-31T02:27:57.232Z,97264.38
2023-01-31T02:30:51.595Z,97267.63
2023-01-31T02:33:38.864Z,97270.34
2023-01-31T02:36:20.416Z,97274.97
2023-01-31T02:38:59.061Z,97277.50
2023-01-31T02:41:45.030Z,97289.88
2023-01-31T02:44:57.673Z,97288.66
2023-01-31T02:47:44.954Z,97295.41
2023-01-31T02:50:14.141Z,97297.09
2023-01-31T02:52:49.956Z,97299.00
2023-01-31T02:55:40.146Z,97291.25
2023-01-31T02:58:09.575Z,97302.44
2023-01-31T03:00:38.925Z,97302.38
2023-01-31T03:03:09.001Z,97300.56
2023-01-31T03:05:35.394Z,97305.28
2023-01-31T03:08:05.189Z,97306.13
2023-01-31T03:10:56.881Z,97306.34
2023-01-31T03:13:29.507Z,97315.63
2023-01-31T03:16:25.105Z,97315.38
2023-01-31T03:19:01.009Z,97321.19
2023-01-31T03:21:36.794Z,97326.44
2023-01-31T03:24:05.727Z,97328.19
2023-01-31T03:26:33.441Z,97323.03
2023-01-31T03:29:03.246Z,97339.09
2023-01-31T03:31:42.556Z,97337.25
2023-01-31T03:34:12.559Z,97336.84
2023-01-31T03:36:55.685Z,97336.94
2023-01-31T03:39:42.268Z,97332.00
2023-01-31T03:42:15.238Z,97343.06
2023-01-31T03:44:50.438Z,97348.03
2023-01-31T03:47:33.656Z,97360.00
2023-01-31T03:50:10.545Z,97354.03
2023-01-31T03:52:40.939Z,97358.31
2023-01-31T03:55:18.929Z,97350.47
2023-01-31T03:57:51.984Z,97356.38
2023-01-31T04:00:21.311Z,97357.28
2023-01-31T04:02:52.469Z,97364.94
2023-01-31T04:05:22.806Z,97365.03
2023-01-31T04:07:50.782Z,97365.94
2023-01-31T04:10:19.631Z,97376.59
2023-01-31T04:12:46.905Z,97379.91
2023-01-31T04:15:14.440Z,97382.84
2023-01-31T04:17:40.790Z,97387.41
2023-01-31T04:20:08.031Z,97377.56
2023-01-31T04:22:34.429Z,97386.91
2023-01-31T04:25:01.254Z,97389.06
2023-01-31T04:27:28.066Z,97395.84
2023-01-31T04:29:54.462Z,97390.28
2023-01-31T04:32:20.993Z,97398.56
2023-01-31T04:34:47.364Z,97394.91
2023-01-31T04:37:13.813Z,97399.91
2023-01-31T04:39:40.202Z,97406.53
2023-01-31T04:42:06.633Z,97409.19
2023-01-31T04:44:33.047Z,97401.47
2023-01-31T04:47:00.073Z,97402.13
2023-01-31T04:49:27.083Z,97404.88
2023-01-31T04:51:53.463Z,97415.06
2023-01-31T04:54:19.924Z,97414.19
2023-01-31T04:56:46.292Z,97428.31
2023-01-31T04:59:12.700Z,97424.00
2023-01-31T05:01:39.069Z,97418.88
2023-01-31T05:04:05.876Z,97411.00
2023-01-31T05:06:32.777Z,97404.13
2023-01-31T05:09:01.328Z,97410.22
2023-01-31T05:11:28.849Z,97397.78
2023-01-31T05:13:55.279Z,97400.53
2023-01-31T05:16:21.735Z,97395.44
2023-01-31T05:18:50.760Z,97405.75
2023-01-31T05:21:17.186Z,97400.41
2023-01-31T05:23:43.662Z,97395.56
2023-01-31T05:26:10.090Z,97398.09
2023-01-31T05:28:37.469Z,97407.50
2023-01-31T05:31:07.148Z,97398.94
2023-01-31T05:33:34.150Z,97391.50
2023-01-31T05:36:00.748Z,97391.44
2023-01-31T05:38:27.430Z,97392.53
2023-01-31T05:40:53.933Z,97381.97
2023-01-31T05:43:20.450Z,97376.28
2023-01-31T05:45:49.346Z,97381.41
2023-01-31T05:48:15.803Z,97376.03
2023-01-31T05:50:43.301Z,97381.91
2023-01-31T05:53:11.084Z,97394.47
2023-01-31T05:55:38.638Z,97405.25
2023-01-31T05:58:06.251Z,97406.91
2023-01-31T06:00:32.649Z,97418.97
2023-01-31T06:03:00.238Z,97419.00
2023-01-31T06:05:27.462Z,97421.31
2023-01-31T06:07:54.105Z,97431.44
2023-01-31T06:10:21.244Z,97427.25
2023-01-31T06:12:48.291Z,97421.47
2023-01-31T06:15:14.845Z,97410.63
2023-01-31T06:17:41.368Z,97415.91
2023-01-31T06:20:08.552Z,97423.34
2023-01-31T06:22:34.925Z,97423.34
2023-01-31T06:25:06.354Z,97431.16
2023-01-31T06:27:33.803Z,97431.16
2023-01-31T06:30:00.636Z,97440.34
2023-01-31T06:32:27.094Z,97446.22
2023-01-31T06:34:53.534Z,97447.91
2023-01-31T06:37:19.902Z,97446.31
2023-01-31T06:39:46.300Z,97451.28
2023-01-31T06:42:12.848Z,97450.28
2023-01-31T06:44:39.609Z,97444.06
2023-01-31T06:47:05.988Z,97449.34
2023-01-31T06:49:32.673Z,97451.59
2023-01-31T06:51:59.115Z,97450.34
2023-01-31T06:54:25.503Z,97450.63
2023-01-31T06:56:53.015Z,97456.69
2023-01-31T06:59:19.376Z,97453.38
2023-01-31T07:01:45.884Z,97456.88
2023-01-31T07:04:12.260Z,97468.06
2023-01-31T07:06:38.709Z,97469.41
2023-01-31T07:09:05.129Z,97479.66
2023-01-31T07:11:31.761Z,97484.72
2023-01-31T07:13:58.227Z,97469.53
2023-01-31T07:16:25.917Z,97484.13
2023-01-31T07:18:53.538Z,97487.25
2023-01-31T07:21:21.240Z,97476.22
2023-01-31T07:23:47.633Z,97484.00
2023-01-31T07:26:14.239Z,97487.41
2023-01-31T07:28:40.652Z,97485.81
2023-01-31T07:31:10.954Z,97485.97
2023-01-31T07:33:38.365Z,97493.75
2023-01-31T07:36:06.600Z,97490.38
2023-01-31T07:38:34.401Z,97490.38
2023-01-31T07:41:03.295Z,97476.81
2023-01-31T07:43:31.279Z,97474.78
2023-01-31T07:45:58.098Z,97472.06
2023-01-31T07:48:24.835Z,97471.00
2023-01-31T07:51:01.498Z,97487.28
2023-01-31T07:53:31.819Z,97478.03
2023-01-31T07:56:16.300Z,97480.78
2023-01-31T07:58:44.327Z,97477.66
2023-01-31T08:01:40.988Z,97476.00
2023-01-31T08:04:20.620Z,97480.28
2023-01-31T08:06:50.723Z,97486.88
2023-01-31T08:09:17.348Z,97483.69
2023-01-31T08:11:43.868Z,97488.94
2023-01-31T08:14:10.284Z,97478.25
2023-01-31T08:16:37.222Z,97477.84
2023-01-31T08:19:04.119Z,97479.50
2023-01-31T08:21:30.893Z,97480.41
2023-01-31T08:23:57.366Z,97483.91
2023-01-31T08:26:25.887Z,97492.47
2023-01-31T08:28:53.989Z,97495.53
2023-01-31T08:31:26.068Z,97504.34
2023-01-31T08:33:54.634Z,97500.31
2023-01-31T08:36:23.885Z,97493.84
2023-01-31T08:38:51.456Z,97505.47
2023-01-31T08:41:21.080Z,97506.09
2023-01-31T08:43:57.144Z,97508.84
2023-01-31T08:46:25.400Z,97512.31
2023-01-31T08:48:51.893Z,97513.75
2023-01-31T08:51:18.395Z,97512.41
2023-01-31T08:53:45.078Z,97525.38
2023-01-31T08:56:13.426Z,97515.81
2023-01-31T08:58:44.152Z,97517.84
2023-01-31T09:01:13.528Z,97527.81
2023-01-31T09:03:40.238Z,97527.69
2023-01-31T09:06:11.060Z,97530.09
2023-01-31T09:08:37.516Z,97532.47
2023-01-31T09:11:04.679Z,97528.94
2023-01-31T09:13:33.473Z,97526.69
2023-01-31T09:16:03.731Z,97517.44
2023-01-31T09:18:30.203Z,97518.84
2023-01-31T09:20:56.831Z,97520.59
2023-01-31T09:23:23.325Z,97527.41
2023-01-31T09:25:56.217Z,97526.53
2023-01-31T09:28:25.200Z,97526.75
2023-01-31T09:30:55.003Z,97515.75
2023-01-31T09:33:22.764Z,97513.47
2023-01-31T09:36:04.172Z,97501.78
2023-01-31T09:38:31.233Z,97511.06
2023-01-31T09:41:00.857Z,97500.84
2023-01-31T09:43:33.646Z,97489.72
2023-01-31T09:46:04.149Z,97500.22
2023-01-31T09:48:35.536Z,97504.03
2023-01-31T09:51:04.427Z,97503.38
2023-01-31T09:53:35.069Z,97508.00
2023-01-31T09:56:04.401Z,97513.75
2023-01-31T09:58:43.054Z,97515.69
2023-01-31T10:01:21.156Z,97498.00
2023-01-31T10:03:53.670Z,97509.88
2023-01-31T10:06:30.590Z,97503.16
2023-01-31T10:09:10.558Z,97498.28
2023-01-31T10:11:51.703Z,97507.03
2023-01-31T10:14:30.509Z,97510.16
2023-01-31T10:17:07.731Z,97496.03
2023-01-31T10:20:22.713Z,97501.97
2023-01-31T10:23:04.226Z,97501.19
2023-01-31T10:25:39.945Z,97499.84
2023-01-31T10:28:18.535Z,97501.03
2023-01-31T10:31:03.853Z,97489.66
2023-01-31T10:33:38.675Z,97482.50
2023-01-31T10:36:13.567Z,97485.63
2023-01-31T10:39:00.750Z,97481.59
2023-01-31T10:41:41.080Z,97474.88
2023-01-31T10:44:17.777Z,97478.84
2023-01-31T10:46:44.139Z,97465.53
2023-01-31T10:49:11.094Z,97464.94
2023-01-31T10:51:57.393Z,97458.41
2023-01-31T10:54:34.133Z,97449.19
2023-01-31T10:57:01.473Z,97453.47
2023-01-31T10:59:37.535Z,97436.00
2023-01-31T11:02:04.981Z,97428.56
2023-01-31T11:04:36.286Z,97428.88
2023-01-31T11:07:03.209Z,97436.44
2023-01-31T11:09:34.380Z,97417.69
2023-01-31T11:12:04.269Z,97416.69
2023-01-31T11:14:31.446Z,97413.44
2023-01-31T11:17:22.977Z,97419.63
2023-01-31T11:19:52.608Z,97415.63
2023-01-31T11:22:28.563Z,97419.16
2023-01-31T11:24:56.920Z,97410.16
2023-01-31T11:27:31.944Z,97409.88
2023-01-31T11:30:00.494Z,97400.75
2023-01-31T11:32:34.158Z,97405.97
2023-01-31T11:35:06.314Z,97389.22
2023-01-31T11:37:34.769Z,97386.22
2023-01-31T11:40:21.004Z,97376.38
2023-01-31T11:42:56.096Z,97370.44
2023-01-31T11:45:27.230Z,97380.22
2023-01-31T11:47:56.820Z,97360.81
2023-01-31T11:50:40.435Z,97357.91
2023-01-31T11:53:24.255Z,97344.81
2023-01-31T11:55:55.608Z,97334.44
2023-01-31T11:58:37.729Z,97353.09
2023-01-31T12:01:14.587Z,97354.31
2023-01-31T12:04:01.329Z,97357.63
2023-01-31T12:06:37.459Z,97356.94
2023-01-31T12:09:25.776Z,97340.84
2023-01-31T12:12:01.022Z,97356.13
2023-01-31T12:14:42.225Z,97360.28
2023-01-31T12:17:17.630Z,97354.41
2023-01-31T12:20:27.014Z,97364.72
2023-01-31T12:23:55.987Z,97356.13
2023-01-31T12:26:35.273Z,97340.50
2023-01-31T12:29:19.455Z,97342.03
2023-01-31T12:32:08.760Z,97334.56
2023-01-31T12:35:00.770Z,97322.69
2023-01-31T12:37:49.581Z,97308.38
2023-01-31T12:40:30.536Z,97305.75
2023-01-31T12:43:01.452Z,97298.16
2023-01-31T12:45:39.773Z,97298.72
2023-01-31T12:48:18.036Z,97291.25
2023-01-31T12:50:51.880Z,97287.94
2023-01-31T12:53:37.118Z,97295.63
2023-01-31T12:56:22.228Z,97287.22
2023-01-31T12:59:16.503Z,97280.59
2023-01-31T13:02:11.919Z,97269.75
2023-01-31T13:04:49.042Z,97285.91
2023-01-31T13:07:28.721Z,97285.97
2023-01-31T13:10:00.736Z,97271.56
2023-01-31T13:12:35.640Z,97269.91
2023-01-31T13:15:28.661Z,97263.78
2023-01-31T13:18:00.896Z,97267.84
2023-01-31T13:20:39.304Z,97272.88
2023-01-31T13:23:23.250Z,97269.50
2023-01-31T13:25:55.960Z,97265.91
2023-01-31T13:28:28.351Z,97261.47
2023-01-31T13:31:01.824Z,97259.72
2023-01-31T13:33:44.930Z,97259.84
2023-01-31T13:36:25.929Z,97271.63
2023-01-31T13:38:52.723Z,97271.34
2023-01-31T13:41:30.964Z,97277.41
2023-01-31T13:43:58.599Z,97287.53
2023-01-31T13:46:32.054Z,97282.28
2023-01-31T13:49:05.155Z,97283.09
2023-01-31T13:51:40.109Z,97273.63
2023-01-31T13:54:17.093Z,97270.94
2023-01-31T13:56:47.757Z,97275.25
2023-01-31T13:59:22.389Z,97281.25
2023-01-31T14:01:51.172Z,97260.19
2023-01-31T14:04:18.279Z,97254.25
2023-01-31T14:07:15.325Z,97249.28
2023-01-31T14:09:50.559Z,97249.09
2023-01-31T14:12:19.798Z,97256.81
2023-01-31T14:14:49.051Z,97236.63
2023-01-31T14:17:55.673Z,97237.81
2023-01-31T14:20:28.997Z,97235.38
2023-01-31T14:23:23.268Z,97238.69
2023-01-31T14:25:49.790Z,97246.75
2023-01-31T14:28:16.402Z,97240.97
2023-01-31T14:30:47.406Z,97247.69
2023-01-31T14:33:20.596Z,97256.09
2023-01-31T14:36:18.219Z,97242.56
2023-01-31T14:39:09.236Z,97250.09
2023-01-31T14:42:08.669Z,97253.00
2023-01-31T14:44:50.219Z,97255.78
2023-01-31T14:47:59.657Z,97239.16
2023-01-31T14:51:17.077Z,97229.03
2023-01-31T14:54:12.584Z,97203.59
2023-01-31T14:56:51.545Z,97210.31
2023-01-31T14:59:30.084Z,97219.59
2023-01-31T15:01:58.303Z,97210.25
2023-01-31T15:04:27.429Z,97199.38
2023-01-31T15:06:56.637Z,97188.25
2023-01-31T15:09:24.469Z,97213.81
2023-01-31T15:11:55.243Z,97221.19
2023-01-31T15:14:41.882Z,97193.16
2023-01-31T15:17:27.169Z,97222.56
2023-01-31T15:20:03.687Z,97220.31
2023-01-31T15:22:30.796Z,97201.50
2023-01-31T15:25:03.784Z,97197.41
2023-01-31T15:27:33.544Z,97200.69
2023-01-31T15:30:09.367Z,97207.53
2023-01-31T15:32:43.549Z,97225.19
2023-01-31T15:35:19.765Z,97228.75
2023-01-31T15:37:48.008Z,97222.13
2023-01-31T15:40:21.666Z,97228.19
2023-01-31T15:42:48.128Z,97221.75
2023-01-31T15:45:20.693Z,97226.88
2023-01-31T15:48:11.427Z,97223.28
2023-01-31T15:50:37.946Z,97208.91
2023-01-31T15:53:14.639Z,97213.31
2023-01-31T15:55:42.007Z,97216.31
2023-01-31T15:58:18.044Z,97218.06
2023-01-31T16:00:44.567Z,97207.75
2023-01-31T16:03:22.651Z,97210.28
2023-01-31T16:05:51.929Z,97204.41
2023-01-31T16:08:37.233Z,97211.19
2023-01-31T16:11:07.922Z,97212.00
2023-01-31T16:13:37.818Z,97205.91
2023-01-31T16:16:07.132Z,97210.81
2023-01-31T16:18:35.661Z,97214.91
2023-01-31T16:21:23.003Z,97214.16
2023-01-31T16:24:08.841Z,97222.78
2023-01-31T16:26:38.843Z,97221.88
2023-01-31T16:29:33.186Z,97223.22
2023-01-31T16:31:59.757Z,97209.09
2023-01-31T16:34:35.003Z,97214.16
2023-01-31T16:37:03.396Z,97221.72
2023-01-31T16:39:41.029Z,97218.34
2023-01-31T16:42:23.481Z,97219.22
2023-01-31T16:44:50.959Z,97218.59
2023-01-31T16:47:43.375Z,97211.69
2023-01-31T16:50:41.766Z,97209.22
2023-01-31T16:53:40.044Z,97202.00
2023-01-31T16:56:17.267Z,97203.91
2023-01-31T16:58:56.499Z,97201.66
2023-01-31T17:01:27.869Z,97207.56
2023-01-31T17:04:03.214Z,97197.38
2023-01-31T17:06:30.772Z,97203.91
2023-01-31T17:08:58.004Z,97201.47
2023-01-31T17:11:41.714Z,97203.22
2023-01-31T17:14:11.190Z,97206.38
2023-01-31T17:16:37.683Z,97204.66
2023-01-31T17:19:04.189Z,97201.00
2023-01-31T17:21:34.696Z,97203.78
2023-01-31T17:24:01.496Z,97209.63
2023-01-31T17:26:30.867Z,97205.16
2023-01-31T17:29:01.855Z,97217.41
2023-01-31T17:31:30.039Z,97209.78
2023-01-31T17:33:56.845Z,97214.13
2023-01-31T17:36:23.816Z,97217.28
2023-01-31T17:38:51.877Z,97205.44
2023-01-31T17:41:21.146Z,97218.00
2023-01-31T17:43:47.706Z,97207.81
2023-01-31T17:46:16.516Z,97207.69
2023-01-31T17:48:45.049Z,97206.81
2023-01-31T17:51:12.165Z,97185.28
2023-01-31T17:53:47.851Z,97191.00
2023-01-31T17:56:16.041Z,97201.06
2023-01-31T17:58:42.591Z,97198.84
2023-01-31T18:01:10.613Z,97208.28
2023-01-31T18:03:37.269Z,97200.53
2023-01-31T18:06:05.483Z,97201.28
2023-01-31T18:08:32.382Z,97199.38
2023-01-31T18:11:16.901Z,97206.09
2023-01-31T18:13:44.108Z,97206.09
2023-01-31T18:16:18.167Z,97198.31
2023-01-31T18:18:44.869Z,97192.28
2023-01-31T18:21:13.409Z,97192.47
2023-01-31T18:23:39.996Z,97202.38
2023-01-31T18:26:09.369Z,97203.25
2023-01-31T18:28:36.323Z,97193.31
2023-01-31T18:31:10.662Z,97197.00
2023-01-31T18:33:37.573Z,97186.75
2023-01-31T18:36:05.879Z,97187.66
2023-01-31T18:38:33.320Z,97186.59
2023-01-31T18:41:02.325Z,97184.22
2023-01-31T18:43:29.696Z,97187.41
2023-01-31T18:45:56.231Z,97193.28
2023-01-31T18:48:22.727Z,97198.44
2023-01-31T18:50:50.305Z,97200.19
2023-01-31T18:53:16.741Z,97194.09
2023-01-31T18:55:43.227Z,97202.56
2023-01-31T18:58:09.653Z,97206.63
2023-01-31T19:00:36.141Z,97201.44
2023-01-31T19:03:02.797Z,97215.00
2023-01-31T19:05:29.297Z,97204.97
2023-01-31T19:07:55.795Z,97213.53
2023-01-31T19:10:22.412Z,97221.84
2023-01-31T19:12:48.848Z,97216.00
2023-01-31T19:15:15.298Z,97217.72
2023-01-31T19:17:41.791Z,97210.38
2023-01-31T19:20:09.320Z,97203.50
2023-01-31T19:22:35.951Z,97216.25
2023-01-31T19:25:02.421Z,97206.09
2023-01-31T19:27:28.814Z,97203.69
2023-01-31T19:29:55.272Z,97209.81
2023-01-31T19:32:22.378Z,97208.94
2023-01-31T19:34:49.012Z,97208.34
2023-01-31T19:37:15.541Z,97200.91
2023-01-31T19:39:42.150Z,97192.53
2023-01-31T19:42:08.674Z,97189.75
2023-01-31T19:44:35.130Z,97195.94
2023-01-31T19:47:01.582Z,97183.22
2023-01-31T19:49:28.169Z,97186.03
2023-01-31T19:51:54.602Z,97181.22
2023-01-31T19:54:20.983Z,97192.25
2023-01-31T19:56:47.593Z,97188.13
2023-01-31T19:59:14.035Z,97191.81
2023-01-31T20:01:40.615Z,97186.84
2023-01-31T20:04:07.116Z,97185.28
2023-01-31T20:06:34.689Z,97191.91
2023-01-31T20:09:05.863Z,97187.03
2023-01-31T20:11:33.959Z,97188.00
2023-01-31T20:14:00.492Z,97193.91
2023-01-31T20:16:27.033Z,97185.72
2023-01-31T20:18:55.415Z,97179.06
2023-01-31T20:21:22.692Z,97174.81
2023-01-31T20:23:49.361Z,97165.41
2023-01-31T20:26:17.980Z,97161.16
2023-01-31T20:28:44.527Z,97159.03
2023-01-31T20:31:12.838Z,97175.00
2023-01-31T20:33:39.236Z,97175.19
2023-01-31T20:36:06.305Z,97181.59
2023-01-31T20:38:33.253Z,97184.38
2023-01-31T20:41:00.808Z,97169.94
2023-01-31T20:43:27.651Z,97179.34
2023-01-31T20:46:01.728Z,97177.72
2023-01-31T20:48:28.254Z,97193.50
2023-01-31T20:50:58.270Z,97191.03
2023-01-31T20:53:24.820Z,97188.44
2023-01-31T20:55:59.385Z,97189.38
2023-01-31T20:58:27.471Z,97189.44
2023-01-31T21:00:55.499Z,97183.53
2023-01-31T21:03:22.701Z,97173.34
2023-01-31T21:05:50.173Z,97172.53
2023-01-31T21:08:18.177Z,97171.78
2023-01-31T21:10:55.937Z,97171.00
2023-01-31T21:13:23.587Z,97175.94
2023-01-31T21:15:54.450Z,97176.91
2023-01-31T21:18:22.549Z,97175.38
2023-01-31T21:20:49.302Z,97163.47
2023-01-31T21:23:16.251Z,97164.41
2023-01-31T21:25:42.675Z,97160.25
2023-01-31T21:28:09.720Z,97156.00
2023-01-31T21:30:36.912Z,97149.41
2023-01-31T21:33:03.978Z,97162.78
2023-01-31T21:35:30.846Z,97167.22
2023-01-31T21:37:57.368Z,97170.53
2023-01-31T21:40:24.003Z,97163.09
2023-01-31T21:42:52.985Z,97180.94
2023-01-31T21:45:38.149Z,97187.66
2023-01-31T21:48:27.443Z,97184.34
2023-01-31T21:50:54.024Z,97186.06
2023-01-31T21:53:21.904Z,97193.72
2023-01-31T21:55:48.397Z,97184.50
2023-01-31T21:58:14.864Z,97187.19
2023-01-31T22:00:43.778Z,97181.81
2023-01-31T22:03:10.959Z,97177.84
2023-01-31T22:05:37.454Z,97174.72
2023-01-31T22:08:03.996Z,97165.22
2023-01-31T22:10:30.516Z,97177.94
2023-01-31T22:12:56.949Z,97179.69
2023-01-31T22:15:23.320Z,97173.91
2023-01-31T22:17:49.733Z,97171.44
2023-01-31T22:20:16.495Z,97185.16
2023-01-31T22:22:44.039Z,97189.38
2023-01-31T22:25:10.559Z,97180.81
2023-01-31T22:27:36.962Z,97180.63
2023-01-31T22:30:15.781Z,97172.78
2023-01-31T22:32:43.131Z,97177.25
2023-01-31T22:35:09.883Z,97177.94
2023-01-31T22:37:36.335Z,97180.31
2023-01-31T22:40:02.807Z,97180.94
2023-01-31T22:42:30.219Z,97174.09
2023-01-31T22:44:56.618Z,97160.41
2023-01-31T22:47:24.021Z,97172.03
2023-01-31T22:49:50.450Z,97178.72
2023-01-31T22:52:18.036Z,97177.78
2023-01-31T22:54:44.426Z,97173.66
2023-01-31T22:57:10.763Z,97179.44
2023-01-31T22:59:37.339Z,97171.66
2023-01-31T23:02:03.843Z,97170.81
2023-01-31T23:04:30.365Z,97176.66
2023-01-31T23:06:56.858Z,97169.81
2023-01-31T23:09:23.287Z,97166.47
2023-01-31T23:11:49.688Z,97165.66
2023-01-31T23:14:16.099Z,97164.88
2023-01-31T23:17:00.884Z,97165.81
2023-01-31T23:19:27.297Z,97160.53
2023-01-31T23:21:53.712Z,97155.47
2023-01-31T23:24:20.357Z,97148.72
2023-01-31T23:26:46.993Z,97149.84
2023-01-31T23:29:13.460Z,97141.50
2023-01-31T23:31:40.175Z,97158.47
2023-01-31T23:34:07.396Z,97159.22
2023-01-31T23:36:34.280Z,97159.56
2023-01-31T23:39:00.854Z,97152.13
2023-01-31T23:41:27.403Z,97165.09
2023-01-31T23:43:53.871Z,97159.16
2023-01-31T23:46:20.707Z,97148.22
2023-01-31T23:48:47.239Z,97145.66
2023-01-31T23:51:13.668Z,97143.97
2023-01-31T23:53:40.098Z,97138.91
2023-01-31T23:56:07.004Z,97129.59
2023-01-31T23:58:34.601Z,97123.75
